sensor_id;sensor_type;location;lat;lon;timestamp;temperature;humidity
9177;DHT22;4623;54.310;10.112;2022-11-20T00:01:25;3.80;99.90
9177;DHT22;4623;54.310;10.112;2022-11-20T00:03:52;3.60;99.90
9177;DHT22;4623;54.310;10.112;2022-11-20T00:06:19;3.50;99.90
9177;DHT22;4623;54.310;10.112;2022-11-20T00:08:45;3.60;99.90
9177;DHT22;4623;54.310;10.112;2022-11-20T00:11:20;3.70;99.90
9177;DHT22;4623;54.310;10.112;2022-11-20T00:13:48;3.70;99.90
9177;DHT22;4623;54.310;10.112;2022-11-20T00:16:16;3.80;99.90
9177;DHT22;4623;54.310;10.112;2022-11-20T00:18:42;3.80;99.90
9177;DHT22;4623;54.310;10.112;2022-11-20T00:21:14;3.80;99.90
9177;DHT22;4623;54.310;10.112;2022-11-20T00:23:41;3.80;99.90
9177;DHT22;4623;54.310;10.112;2022-11-20T00:26:09;3.70;99.90
9177;DHT22;4623;54.310;10.112;2022-11-20T00:28:34;3.70;99.90
9177;DHT22;4623;54.310;10.112;2022-11-20T00:31:04;3.70;99.90
9177;DHT22;4623;54.310;10.112;2022-11-20T00:33:30;3.70;99.90
9177;DHT22;4623;54.310;10.112;2022-11-20T00:36:07;3.70;99.90
9177;DHT22;4623;54.310;10.112;2022-11-20T00:38:34;3.70;99.90
9177;DHT22;4623;54.310;10.112;2022-11-20T00:41:02;3.70;99.90
9177;DHT22;4623;54.310;10.112;2022-11-20T00:43:28;3.70;99.90
9177;DHT22;4623;54.310;10.112;2022-11-20T00:46:03;3.60;99.90
9177;DHT22;4623;54.310;10.112;2022-11-20T00:48:29;3.40;99.90
9177;DHT22;4623;54.310;10.112;2022-11-20T00:50:55;3.30;99.90
9177;DHT22;4623;54.310;10.112;2022-11-20T00:53:21;3.30;99.90
9177;DHT22;4623;54.310;10.112;2022-11-20T00:56:01;3.30;99.90
9177;DHT22;4623;54.310;10.112;2022-11-20T00:58:35;3.30;99.90
9177;DHT22;4623;54.310;10.112;2022-11-20T01:01:06;3.30;99.90
9177;DHT22;4623;54.310;10.112;2022-11-20T01:03:36;3.40;99.90
9177;DHT22;4623;54.310;10.112;2022-11-20T01:06:05;3.40;99.90
9177;DHT22;4623;54.310;10.112;2022-11-20T01:08:35;3.30;99.90
9177;DHT22;4623;54.310;10.112;2022-11-20T01:11:08;3.20;99.90
9177;DHT22;4623;54.310;10.112;2022-11-20T01:13:35;3.30;99.90
9177;DHT22;4623;54.310;10.112;2022-11-20T01:16:06;3.40;99.90
9177;DHT22;4623;54.310;10.112;2022-11-20T01:18:32;3.40;99.90
9177;DHT22;4623;54.310;10.112;2022-11-20T01:21:25;3.50;99.90
9177;DHT22;4623;54.310;10.112;2022-11-20T01:23:51;3.50;99.90
9177;DHT22;4623;54.310;10.112;2022-11-20T01:26:20;3.50;99.90
9177;DHT22;4623;54.310;10.112;2022-11-20T01:28:45;3.50;99.90
9177;DHT22;4623;54.310;10.112;2022-11-20T01:31:13;3.50;99.90
9177;DHT22;4623;54.310;10.112;2022-11-20T01:33:39;3.50;99.90
9177;DHT22;4623;54.310;10.112;2022-11-20T01:36:06;3.60;99.90
9177;DHT22;4623;54.310;10.112;2022-11-20T01:38:32;3.60;99.90
9177;DHT22;4623;54.310;10.112;2022-11-20T01:40:58;3.40;99.90
9177;DHT22;4623;54.310;10.112;2022-11-20T01:43:24;3.20;99.90
9177;DHT22;4623;54.310;10.112;2022-11-20T01:46:00;3.10;99.90
9177;DHT22;4623;54.310;10.112;2022-11-20T01:50:58;3.10;99.90
9177;DHT22;4623;54.310;10.112;2022-11-20T01:53:28;3.20;99.90
9177;DHT22;4623;54.310;10.112;2022-11-20T01:55:56;3.30;99.90
9177;DHT22;4623;54.310;10.112;2022-11-20T01:58:30;3.30;99.90
9177;DHT22;4623;54.310;10.112;2022-11-20T02:00:57;3.40;99.90
9177;DHT22;4623;54.310;10.112;2022-11-20T02:03:23;3.40;99.90
9177;DHT22;4623;54.310;10.112;2022-11-20T02:06:04;3.40;99.90
9177;DHT22;4623;54.310;10.112;2022-11-20T02:08:30;3.30;99.90
9177;DHT22;4623;54.310;10.112;2022-11-20T02:10:56;3.30;99.90
9177;DHT22;4623;54.310;10.112;2022-11-20T02:13:22;3.30;99.90
9177;DHT22;4623;54.310;10.112;2022-11-20T02:18:44;3.30;99.90
9177;DHT22;4623;54.310;10.112;2022-11-20T02:21:35;3.30;99.90
9177;DHT22;4623;54.310;10.112;2022-11-20T02:26:30;3.20;99.90
9177;DHT22;4623;54.310;10.112;2022-11-20T02:28:56;3.20;99.90
9177;DHT22;4623;54.310;10.112;2022-11-20T02:31:23;3.20;99.90
9177;DHT22;4623;54.310;10.112;2022-11-20T02:33:56;3.20;99.90
9177;DHT22;4623;54.310;10.112;2022-11-20T02:36:23;3.20;99.90
9177;DHT22;4623;54.310;10.112;2022-11-20T02:38:49;3.30;99.90
9177;DHT22;4623;54.310;10.112;2022-11-20T02:41:15;3.30;99.90
9177;DHT22;4623;54.310;10.112;2022-11-20T02:43:41;3.30;99.90
9177;DHT22;4623;54.310;10.112;2022-11-20T02:46:07;3.20;99.90
9177;DHT22;4623;54.310;10.112;2022-11-20T02:48:33;3.20;99.90
9177;DHT22;4623;54.310;10.112;2022-11-20T02:50:59;3.10;99.90
9177;DHT22;4623;54.310;10.112;2022-11-20T02:53:25;3.10;99.90
9177;DHT22;4623;54.310;10.112;2022-11-20T02:55:50;3.10;99.90
9177;DHT22;4623;54.310;10.112;2022-11-20T02:58:16;3.10;99.90
9177;DHT22;4623;54.310;10.112;2022-11-20T03:00:42;3.10;99.90
9177;DHT22;4623;54.310;10.112;2022-11-20T03:03:07;3.10;99.90
9177;DHT22;4623;54.310;10.112;2022-11-20T03:05:33;3.20;99.90
9177;DHT22;4623;54.310;10.112;2022-11-20T03:07:58;3.30;99.90
9177;DHT22;4623;54.310;10.112;2022-11-20T03:10:24;3.40;99.90
9177;DHT22;4623;54.310;10.112;2022-11-20T03:12:54;3.50;99.90
9177;DHT22;4623;54.310;10.112;2022-11-20T03:15:21;3.50;99.90
9177;DHT22;4623;54.310;10.112;2022-11-20T03:17:47;3.40;99.90
9177;DHT22;4623;54.310;10.112;2022-11-20T03:20:13;3.40;99.90
9177;DHT22;4623;54.310;10.112;2022-11-20T03:22:38;3.40;99.90
9177;DHT22;4623;54.310;10.112;2022-11-20T03:25:04;3.50;99.90
9177;DHT22;4623;54.310;10.112;2022-11-20T03:27:39;3.50;99.90
9177;DHT22;4623;54.310;10.112;2022-11-20T03:30:05;3.50;99.90
9177;DHT22;4623;54.310;10.112;2022-11-20T03:32:31;3.40;99.90
9177;DHT22;4623;54.310;10.112;2022-11-20T03:34:56;3.40;99.90
9177;DHT22;4623;54.310;10.112;2022-11-20T03:37:22;3.20;99.90
9177;DHT22;4623;54.310;10.112;2022-11-20T03:39:48;3.20;99.90
9177;DHT22;4623;54.310;10.112;2022-11-20T03:42:13;3.20;99.90
9177;DHT22;4623;54.310;10.112;2022-11-20T03:45:05;3.20;99.90
9177;DHT22;4623;54.310;10.112;2022-11-20T03:47:31;3.20;99.90
9177;DHT22;4623;54.310;10.112;2022-11-20T03:49:56;3.30;99.90
9177;DHT22;4623;54.310;10.112;2022-11-20T03:52:22;3.40;99.90
9177;DHT22;4623;54.310;10.112;2022-11-20T03:54:47;3.50;99.90
9177;DHT22;4623;54.310;10.112;2022-11-20T03:57:13;3.60;99.90
9177;DHT22;4623;54.310;10.112;2022-11-20T03:59:39;3.60;99.90
9177;DHT22;4623;54.310;10.112;2022-11-20T04:02:04;3.60;99.90
9177;DHT22;4623;54.310;10.112;2022-11-20T04:04:30;3.50;99.90
9177;DHT22;4623;54.310;10.112;2022-11-20T04:06:55;3.50;99.90
9177;DHT22;4623;54.310;10.112;2022-11-20T04:09:21;3.50;99.90
9177;DHT22;4623;54.310;10.112;2022-11-20T04:11:46;3.60;99.90
9177;DHT22;4623;54.310;10.112;2022-11-20T04:14:16;3.60;99.90
9177;DHT22;4623;54.310;10.112;2022-11-20T04:16:42;3.60;99.90
9177;DHT22;4623;54.310;10.112;2022-11-20T04:19:15;3.60;99.90
9177;DHT22;4623;54.310;10.112;2022-11-20T04:21:42;3.70;99.90
9177;DHT22;4623;54.310;10.112;2022-11-20T04:24:08;3.60;99.90
9177;DHT22;4623;54.310;10.112;2022-11-20T04:26:35;3.50;99.90
9177;DHT22;4623;54.310;10.112;2022-11-20T04:29:01;3.40;99.90
9177;DHT22;4623;54.310;10.112;2022-11-20T04:31:29;3.40;99.90
9177;DHT22;4623;54.310;10.112;2022-11-20T04:33:55;3.30;99.90
9177;DHT22;4623;54.310;10.112;2022-11-20T04:36:25;3.30;99.90
9177;DHT22;4623;54.310;10.112;2022-11-20T04:38:58;3.40;99.90
9177;DHT22;4623;54.310;10.112;2022-11-20T04:41:30;3.50;99.90
9177;DHT22;4623;54.310;10.112;2022-11-20T04:43:58;3.40;99.90
9177;DHT22;4623;54.310;10.112;2022-11-20T04:46:27;3.10;99.90
9177;DHT22;4623;54.310;10.112;2022-11-20T04:48:54;3.10;99.90
9177;DHT22;4623;54.310;10.112;2022-11-20T04:51:19;3.10;99.90
9177;DHT22;4623;54.310;10.112;2022-11-20T04:53:45;3.20;99.90
9177;DHT22;4623;54.310;10.112;2022-11-20T04:56:12;3.20;99.90
9177;DHT22;4623;54.310;10.112;2022-11-20T04:58:38;3.20;99.90
9177;DHT22;4623;54.310;10.112;2022-11-20T05:01:07;3.30;99.90
9177;DHT22;4623;54.310;10.112;2022-11-20T05:03:34;3.30;99.90
9177;DHT22;4623;54.310;10.112;2022-11-20T05:06:01;3.40;99.90
9177;DHT22;4623;54.310;10.112;2022-11-20T05:08:28;3.50;99.90
9177;DHT22;4623;54.310;10.112;2022-11-20T05:10:54;3.40;99.90
9177;DHT22;4623;54.310;10.112;2022-11-20T05:13:19;3.30;99.90
9177;DHT22;4623;54.310;10.112;2022-11-20T05:15:45;3.40;99.90
9177;DHT22;4623;54.310;10.112;2022-11-20T05:18:10;3.30;99.90
9177;DHT22;4623;54.310;10.112;2022-11-20T05:20:36;3.30;99.90
9177;DHT22;4623;54.310;10.112;2022-11-20T05:23:02;3.30;99.90
9177;DHT22;4623;54.310;10.112;2022-11-20T05:25:27;3.30;99.90
9177;DHT22;4623;54.310;10.112;2022-11-20T05:27:53;3.30;99.90
9177;DHT22;4623;54.310;10.112;2022-11-20T05:30:19;3.30;99.90
9177;DHT22;4623;54.310;10.112;2022-11-20T05:32:45;3.40;99.90
9177;DHT22;4623;54.310;10.112;2022-11-20T05:35:10;3.40;99.90
9177;DHT22;4623;54.310;10.112;2022-11-20T05:37:36;3.40;99.90
9177;DHT22;4623;54.310;10.112;2022-11-20T05:40:01;3.20;99.90
9177;DHT22;4623;54.310;10.112;2022-11-20T05:42:30;3.20;99.90
9177;DHT22;4623;54.310;10.112;2022-11-20T05:45:00;3.30;99.90
9177;DHT22;4623;54.310;10.112;2022-11-20T05:47:27;3.30;99.90
9177;DHT22;4623;54.310;10.112;2022-11-20T05:49:53;3.40;99.90
9177;DHT22;4623;54.310;10.112;2022-11-20T05:52:19;3.40;99.90
9177;DHT22;4623;54.310;10.112;2022-11-20T05:54:45;3.50;99.90
9177;DHT22;4623;54.310;10.112;2022-11-20T05:57:11;3.50;99.90
9177;DHT22;4623;54.310;10.112;2022-11-20T05:59:36;3.60;99.90
9177;DHT22;4623;54.310;10.112;2022-11-20T06:02:02;3.40;99.90
9177;DHT22;4623;54.310;10.112;2022-11-20T06:04:28;3.30;99.90
9177;DHT22;4623;54.310;10.112;2022-11-20T06:06:53;3.20;99.90
9177;DHT22;4623;54.310;10.112;2022-11-20T06:09:19;3.10;99.90
9177;DHT22;4623;54.310;10.112;2022-11-20T06:11:44;3.20;99.90
9177;DHT22;4623;54.310;10.112;2022-11-20T06:14:10;3.30;99.90
9177;DHT22;4623;54.310;10.112;2022-11-20T06:16:36;3.40;99.90
9177;DHT22;4623;54.310;10.112;2022-11-20T06:19:01;3.40;99.90
9177;DHT22;4623;54.310;10.112;2022-11-20T06:21:27;3.30;99.90
9177;DHT22;4623;54.310;10.112;2022-11-20T06:23:53;3.30;99.90
9177;DHT22;4623;54.310;10.112;2022-11-20T06:26:21;3.20;99.90
9177;DHT22;4623;54.310;10.112;2022-11-20T06:28:48;3.20;99.90
9177;DHT22;4623;54.310;10.112;2022-11-20T06:31:15;3.00;99.90
9177;DHT22;4623;54.310;10.112;2022-11-20T06:33:42;2.90;99.90
9177;DHT22;4623;54.310;10.112;2022-11-20T06:36:10;3.10;99.90
9177;DHT22;4623;54.310;10.112;2022-11-20T06:38:36;3.20;99.90
9177;DHT22;4623;54.310;10.112;2022-11-20T06:41:03;3.10;99.90
9177;DHT22;4623;54.310;10.112;2022-11-20T06:43:29;2.90;99.90
9177;DHT22;4623;54.310;10.112;2022-11-20T06:45:56;2.90;99.90
9177;DHT22;4623;54.310;10.112;2022-11-20T06:48:23;2.80;99.90
9177;DHT22;4623;54.310;10.112;2022-11-20T06:50:48;2.80;99.90
9177;DHT22;4623;54.310;10.112;2022-11-20T06:53:14;2.70;99.90
9177;DHT22;4623;54.310;10.112;2022-11-20T06:55:44;2.80;99.90
9177;DHT22;4623;54.310;10.112;2022-11-20T06:58:10;2.80;99.90
9177;DHT22;4623;54.310;10.112;2022-11-20T07:00:36;2.70;99.90
9177;DHT22;4623;54.310;10.112;2022-11-20T07:03:06;2.90;99.90
9177;DHT22;4623;54.310;10.112;2022-11-20T07:05:32;2.80;99.90
9177;DHT22;4623;54.310;10.112;2022-11-20T07:07:58;3.00;99.90
9177;DHT22;4623;54.310;10.112;2022-11-20T07:10:24;3.10;99.90
9177;DHT22;4623;54.310;10.112;2022-11-20T07:12:51;3.20;99.90
9177;DHT22;4623;54.310;10.112;2022-11-20T07:15:19;3.30;99.90
9177;DHT22;4623;54.310;10.112;2022-11-20T07:17:45;3.30;99.90
9177;DHT22;4623;54.310;10.112;2022-11-20T07:20:11;3.20;99.90
9177;DHT22;4623;54.310;10.112;2022-11-20T07:22:37;3.20;99.90
9177;DHT22;4623;54.310;10.112;2022-11-20T07:25:03;3.20;99.90
9177;DHT22;4623;54.310;10.112;2022-11-20T07:27:29;3.10;99.90
9177;DHT22;4623;54.310;10.112;2022-11-20T07:29:55;3.00;99.90
9177;DHT22;4623;54.310;10.112;2022-11-20T07:32:21;3.10;99.90
9177;DHT22;4623;54.310;10.112;2022-11-20T07:34:47;3.20;99.90
9177;DHT22;4623;54.310;10.112;2022-11-20T07:37:13;3.10;99.90
9177;DHT22;4623;54.310;10.112;2022-11-20T07:39:39;3.20;99.90
9177;DHT22;4623;54.310;10.112;2022-11-20T07:42:06;3.40;99.90
9177;DHT22;4623;54.310;10.112;2022-11-20T07:44:33;3.50;99.90
9177;DHT22;4623;54.310;10.112;2022-11-20T07:46:58;3.60;99.90
9177;DHT22;4623;54.310;10.112;2022-11-20T07:49:24;3.70;99.90
9177;DHT22;4623;54.310;10.112;2022-11-20T07:51:51;3.70;99.90
9177;DHT22;4623;54.310;10.112;2022-11-20T07:54:18;3.70;99.90
9177;DHT22;4623;54.310;10.112;2022-11-20T07:56:44;3.70;99.90
9177;DHT22;4623;54.310;10.112;2022-11-20T07:59:09;3.70;99.90
9177;DHT22;4623;54.310;10.112;2022-11-20T08:01:37;3.80;99.90
9177;DHT22;4623;54.310;10.112;2022-11-20T08:04:03;3.90;99.90
9177;DHT22;4623;54.310;10.112;2022-11-20T08:06:29;3.90;99.90
9177;DHT22;4623;54.310;10.112;2022-11-20T08:08:54;3.90;99.90
9177;DHT22;4623;54.310;10.112;2022-11-20T08:11:20;3.90;99.90
9177;DHT22;4623;54.310;10.112;2022-11-20T08:14:04;4.00;99.90
9177;DHT22;4623;54.310;10.112;2022-11-20T08:16:47;4.00;99.90
9177;DHT22;4623;54.310;10.112;2022-11-20T08:19:14;4.00;99.90
9177;DHT22;4623;54.310;10.112;2022-11-20T08:21:40;4.00;99.90
9177;DHT22;4623;54.310;10.112;2022-11-20T08:24:06;4.00;99.90
9177;DHT22;4623;54.310;10.112;2022-11-20T08:26:33;3.90;99.90
9177;DHT22;4623;54.310;10.112;2022-11-20T08:28:59;3.90;99.90
9177;DHT22;4623;54.310;10.112;2022-11-20T08:31:26;4.00;99.90
9177;DHT22;4623;54.310;10.112;2022-11-20T08:33:52;4.30;99.90
9177;DHT22;4623;54.310;10.112;2022-11-20T08:36:19;5.20;99.90
9177;DHT22;4623;54.310;10.112;2022-11-20T08:38:49;6.30;99.90
9177;DHT22;4623;54.310;10.112;2022-11-20T08:41:16;7.40;99.90
9177;DHT22;4623;54.310;10.112;2022-11-20T08:43:59;7.60;99.90
9177;DHT22;4623;54.310;10.112;2022-11-20T08:46:28;7.40;99.90
9177;DHT22;4623;54.310;10.112;2022-11-20T08:48:56;7.10;99.90
9177;DHT22;4623;54.310;10.112;2022-11-20T08:51:21;6.50;99.90
9177;DHT22;4623;54.310;10.112;2022-11-20T08:53:47;5.80;99.90
9177;DHT22;4623;54.310;10.112;2022-11-20T08:56:14;5.40;99.90
9177;DHT22;4623;54.310;10.112;2022-11-20T08:58:39;5.10;99.90
9177;DHT22;4623;54.310;10.112;2022-11-20T09:01:05;4.80;99.90
9177;DHT22;4623;54.310;10.112;2022-11-20T09:03:31;4.70;99.90
9177;DHT22;4623;54.310;10.112;2022-11-20T09:06:01;4.70;99.90
9177;DHT22;4623;54.310;10.112;2022-11-20T09:08:28;4.50;99.90
9177;DHT22;4623;54.310;10.112;2022-11-20T09:10:55;4.50;99.90
9177;DHT22;4623;54.310;10.112;2022-11-20T09:13:22;4.40;99.90
9177;DHT22;4623;54.310;10.112;2022-11-20T09:15:59;4.30;99.90
9177;DHT22;4623;54.310;10.112;2022-11-20T09:18:26;4.00;99.90
9177;DHT22;4623;54.310;10.112;2022-11-20T09:20:56;3.90;99.90
9177;DHT22;4623;54.310;10.112;2022-11-20T09:23:22;4.00;99.90
9177;DHT22;4623;54.310;10.112;2022-11-20T09:25:47;4.00;99.90
9177;DHT22;4623;54.310;10.112;2022-11-20T09:28:13;4.00;99.90
9177;DHT22;4623;54.310;10.112;2022-11-20T09:30:39;4.10;99.90
9177;DHT22;4623;54.310;10.112;2022-11-20T09:33:05;4.10;99.90
9177;DHT22;4623;54.310;10.112;2022-11-20T09:35:34;4.20;99.90
9177;DHT22;4623;54.310;10.112;2022-11-20T09:38:07;4.20;99.90
9177;DHT22;4623;54.310;10.112;2022-11-20T09:40:35;4.10;99.90
9177;DHT22;4623;54.310;10.112;2022-11-20T09:46:00;3.90;99.90
9177;DHT22;4623;54.310;10.112;2022-11-20T09:51:53;3.70;99.90
9177;DHT22;4623;54.310;10.112;2022-11-20T09:54:37;3.90;99.90
9177;DHT22;4623;54.310;10.112;2022-11-20T09:57:20;4.70;99.90
9177;DHT22;4623;54.310;10.112;2022-11-20T09:59:51;4.80;99.90
9177;DHT22;4623;54.310;10.112;2022-11-20T10:02:30;4.80;99.90
9177;DHT22;4623;54.310;10.112;2022-11-20T10:07:52;4.80;99.90
9177;DHT22;4623;54.310;10.112;2022-11-20T10:10:45;4.80;99.90
9177;DHT22;4623;54.310;10.112;2022-11-20T10:24:02;4.50;99.90
9177;DHT22;4623;54.310;10.112;2022-11-20T10:29:38;4.50;99.90
9177;DHT22;4623;54.310;10.112;2022-11-20T10:32:19;4.50;99.90
9177;DHT22;4623;54.310;10.112;2022-11-20T10:35:01;4.60;99.90
9177;DHT22;4623;54.310;10.112;2022-11-20T10:37:31;4.60;99.90
9177;DHT22;4623;54.310;10.112;2022-11-20T10:42:44;4.50;99.90
9177;DHT22;4623;54.310;10.112;2022-11-20T10:47:54;4.60;99.90
9177;DHT22;4623;54.310;10.112;2022-11-20T10:50:22;4.50;99.90
9177;DHT22;4623;54.310;10.112;2022-11-20T10:53:10;4.50;99.90
9177;DHT22;4623;54.310;10.112;2022-11-20T10:55:50;4.50;99.90
9177;DHT22;4623;54.310;10.112;2022-11-20T10:58:22;4.30;99.90
9177;DHT22;4623;54.310;10.112;2022-11-20T11:00:51;4.30;99.90
9177;DHT22;4623;54.310;10.112;2022-11-20T11:03:23;4.30;99.90
9177;DHT22;4623;54.310;10.112;2022-11-20T11:06:31;4.40;99.90
9177;DHT22;4623;54.310;10.112;2022-11-20T11:09:03;4.40;99.90
9177;DHT22;4623;54.310;10.112;2022-11-20T11:11:32;4.30;99.90
9177;DHT22;4623;54.310;10.112;2022-11-20T11:14:09;4.40;99.90
9177;DHT22;4623;54.310;10.112;2022-11-20T11:16:35;4.40;99.90
9177;DHT22;4623;54.310;10.112;2022-11-20T11:21:31;4.30;99.90
9177;DHT22;4623;54.310;10.112;2022-11-20T11:24:02;4.20;99.90
9177;DHT22;4623;54.310;10.112;2022-11-20T11:26:28;4.20;99.90
9177;DHT22;4623;54.310;10.112;2022-11-20T11:28:58;4.30;99.90
9177;DHT22;4623;54.310;10.112;2022-11-20T11:31:30;4.30;99.90
9177;DHT22;4623;54.310;10.112;2022-11-20T11:34:11;4.30;99.90
9177;DHT22;4623;54.310;10.112;2022-11-20T11:36:37;4.30;99.90
9177;DHT22;4623;54.310;10.112;2022-11-20T11:39:05;4.40;99.90
9177;DHT22;4623;54.310;10.112;2022-11-20T11:41:33;4.30;99.90
9177;DHT22;4623;54.310;10.112;2022-11-20T11:46:58;4.50;99.90
9177;DHT22;4623;54.310;10.112;2022-11-20T11:49:24;4.60;99.90
9177;DHT22;4623;54.310;10.112;2022-11-20T11:54:49;4.70;99.90
9177;DHT22;4623;54.310;10.112;2022-11-20T12:02:36;8.20;99.90
9177;DHT22;4623;54.310;10.112;2022-11-20T12:08:05;7.70;99.90
9177;DHT22;4623;54.310;10.112;2022-11-20T12:10:55;7.20;99.90
9177;DHT22;4623;54.310;10.112;2022-11-20T12:16:00;6.30;99.90
9177;DHT22;4623;54.310;10.112;2022-11-20T12:18:27;6.00;99.90
9177;DHT22;4623;54.310;10.112;2022-11-20T12:25:59;6.70;99.90
9177;DHT22;4623;54.310;10.112;2022-11-20T12:36:40;5.70;99.90
9177;DHT22;4623;54.310;10.112;2022-11-20T12:39:43;5.70;99.90
9177;DHT22;4623;54.310;10.112;2022-11-20T12:42:42;5.70;99.90
9177;DHT22;4623;54.310;10.112;2022-11-20T12:48:38;6.80;99.90
9177;DHT22;4623;54.310;10.112;2022-11-20T12:56:47;9.00;99.90
9177;DHT22;4623;54.310;10.112;2022-11-20T13:07:45;7.20;99.90
9177;DHT22;4623;54.310;10.112;2022-11-20T13:10:23;7.30;99.90
9177;DHT22;4623;54.310;10.112;2022-11-20T13:12:58;7.50;99.90
9177;DHT22;4623;54.310;10.112;2022-11-20T13:15:36;7.40;99.90
9177;DHT22;4623;54.310;10.112;2022-11-20T13:18:09;7.50;99.90
9177;DHT22;4623;54.310;10.112;2022-11-20T13:20:36;7.50;99.90
9177;DHT22;4623;54.310;10.112;2022-11-20T13:23:06;7.10;99.90
9177;DHT22;4623;54.310;10.112;2022-11-20T13:25:39;6.80;99.90
9177;DHT22;4623;54.310;10.112;2022-11-20T13:30:35;6.50;99.90
9177;DHT22;4623;54.310;10.112;2022-11-20T13:36:04;7.10;99.90
9177;DHT22;4623;54.310;10.112;2022-11-20T13:38:50;7.70;99.90
9177;DHT22;4623;54.310;10.112;2022-11-20T13:41:33;8.30;99.90
9177;DHT22;4623;54.310;10.112;2022-11-20T13:46:56;9.00;99.90
9177;DHT22;4623;54.310;10.112;2022-11-20T13:49:39;9.10;99.90
9177;DHT22;4623;54.310;10.112;2022-11-20T13:55:27;9.00;99.90
9177;DHT22;4623;54.310;10.112;2022-11-20T14:00:50;9.70;99.90
9177;DHT22;4623;54.310;10.112;2022-11-20T14:03:20;9.80;99.50
9177;DHT22;4623;54.310;10.112;2022-11-20T14:06:00;10.10;99.10
9177;DHT22;4623;54.310;10.112;2022-11-20T14:08:41;10.20;98.60
9177;DHT22;4623;54.310;10.112;2022-11-20T14:11:14;10.30;95.70
9177;DHT22;4623;54.310;10.112;2022-11-20T14:14:13;10.10;96.70
9177;DHT22;4623;54.310;10.112;2022-11-20T14:16:39;9.50;99.90
9177;DHT22;4623;54.310;10.112;2022-11-20T14:21:50;8.30;99.90
9177;DHT22;4623;54.310;10.112;2022-11-20T14:24:21;7.70;99.90
9177;DHT22;4623;54.310;10.112;2022-11-20T14:26:47;7.20;99.90
9177;DHT22;4623;54.310;10.112;2022-11-20T14:29:18;6.80;99.90
9177;DHT22;4623;54.310;10.112;2022-11-20T14:31:45;6.60;99.90
9177;DHT22;4623;54.310;10.112;2022-11-20T14:34:18;6.50;99.90
9177;DHT22;4623;54.310;10.112;2022-11-20T14:36:45;6.30;99.90
9177;DHT22;4623;54.310;10.112;2022-11-20T14:39:20;6.10;99.90
9177;DHT22;4623;54.310;10.112;2022-11-20T14:41:53;5.90;99.90
9177;DHT22;4623;54.310;10.112;2022-11-20T14:44:23;5.80;99.90
9177;DHT22;4623;54.310;10.112;2022-11-20T14:46:52;5.70;99.90
9177;DHT22;4623;54.310;10.112;2022-11-20T14:49:20;5.70;99.90
9177;DHT22;4623;54.310;10.112;2022-11-20T14:51:46;5.60;99.90
9177;DHT22;4623;54.310;10.112;2022-11-20T14:54:17;5.50;99.90
9177;DHT22;4623;54.310;10.112;2022-11-20T14:56:57;5.50;99.90
9177;DHT22;4623;54.310;10.112;2022-11-20T14:59:27;5.40;99.90
9177;DHT22;4623;54.310;10.112;2022-11-20T15:01:59;5.30;99.90
9177;DHT22;4623;54.310;10.112;2022-11-20T15:04:25;5.20;99.90
9177;DHT22;4623;54.310;10.112;2022-11-20T15:06:54;5.10;99.90
9177;DHT22;4623;54.310;10.112;2022-11-20T15:09:20;5.00;99.90
9177;DHT22;4623;54.310;10.112;2022-11-20T15:12:02;4.90;99.90
9177;DHT22;4623;54.310;10.112;2022-11-20T15:14:30;4.90;99.90
9177;DHT22;4623;54.310;10.112;2022-11-20T15:16:56;4.80;99.90
9177;DHT22;4623;54.310;10.112;2022-11-20T15:19:24;4.70;99.90
9177;DHT22;4623;54.310;10.112;2022-11-20T15:21:50;4.70;99.90
9177;DHT22;4623;54.310;10.112;2022-11-20T15:24:16;4.60;99.90
9177;DHT22;4623;54.310;10.112;2022-11-20T15:26:42;4.50;99.90
9177;DHT22;4623;54.310;10.112;2022-11-20T15:29:13;4.50;99.90
9177;DHT22;4623;54.310;10.112;2022-11-20T15:31:40;4.40;99.90
9177;DHT22;4623;54.310;10.112;2022-11-20T15:34:11;4.40;99.90
9177;DHT22;4623;54.310;10.112;2022-11-20T15:36:38;4.40;99.90
9177;DHT22;4623;54.310;10.112;2022-11-20T15:39:03;4.30;99.90
9177;DHT22;4623;54.310;10.112;2022-11-20T15:41:29;4.30;99.90
9177;DHT22;4623;54.310;10.112;2022-11-20T15:43:55;4.20;99.90
9177;DHT22;4623;54.310;10.112;2022-11-20T15:46:27;4.10;99.90
9177;DHT22;4623;54.310;10.112;2022-11-20T15:48:57;4.10;99.90
9177;DHT22;4623;54.310;10.112;2022-11-20T15:51:38;4.00;99.90
9177;DHT22;4623;54.310;10.112;2022-11-20T15:54:11;3.90;99.90
9177;DHT22;4623;54.310;10.112;2022-11-20T15:56:37;4.20;99.90
9177;DHT22;4623;54.310;10.112;2022-11-20T15:59:02;4.50;99.90
9177;DHT22;4623;54.310;10.112;2022-11-20T16:01:28;4.90;99.90
9177;DHT22;4623;54.310;10.112;2022-11-20T16:03:54;4.60;99.90
9177;DHT22;4623;54.310;10.112;2022-11-20T16:06:19;4.20;99.90
9177;DHT22;4623;54.310;10.112;2022-11-20T16:08:45;3.90;99.90
9177;DHT22;4623;54.310;10.112;2022-11-20T16:11:16;3.90;99.90
9177;DHT22;4623;54.310;10.112;2022-11-20T16:13:42;4.10;99.90
9177;DHT22;4623;54.310;10.112;2022-11-20T16:16:37;4.10;99.90
9177;DHT22;4623;54.310;10.112;2022-11-20T16:19:03;4.20;99.90
9177;DHT22;4623;54.310;10.112;2022-11-20T16:21:29;4.20;99.90
9177;DHT22;4623;54.310;10.112;2022-11-20T16:24:02;4.10;99.90
9177;DHT22;4623;54.310;10.112;2022-11-20T16:26:29;3.90;99.90
9177;DHT22;4623;54.310;10.112;2022-11-20T16:28:55;3.70;99.90
9177;DHT22;4623;54.310;10.112;2022-11-20T16:31:21;3.60;99.90
9177;DHT22;4623;54.310;10.112;2022-11-20T16:33:51;3.70;99.90
9177;DHT22;4623;54.310;10.112;2022-11-20T16:36:18;3.90;99.90
9177;DHT22;4623;54.310;10.112;2022-11-20T16:38:44;3.90;99.90
9177;DHT22;4623;54.310;10.112;2022-11-20T16:41:10;4.00;99.90
9177;DHT22;4623;54.310;10.112;2022-11-20T16:43:49;4.00;99.90
9177;DHT22;4623;54.310;10.112;2022-11-20T16:46:17;3.90;99.90
9177;DHT22;4623;54.310;10.112;2022-11-20T16:48:43;3.70;99.90
9177;DHT22;4623;54.310;10.112;2022-11-20T16:51:10;3.70;99.90
9177;DHT22;4623;54.310;10.112;2022-11-20T16:53:36;3.60;99.90
9177;DHT22;4623;54.310;10.112;2022-11-20T16:56:13;3.50;99.90
9177;DHT22;4623;54.310;10.112;2022-11-20T16:58:42;3.50;99.90
9177;DHT22;4623;54.310;10.112;2022-11-20T17:01:08;3.60;99.90
9177;DHT22;4623;54.310;10.112;2022-11-20T17:03:39;3.60;99.90
9177;DHT22;4623;54.310;10.112;2022-11-20T17:06:15;3.50;99.90
9177;DHT22;4623;54.310;10.112;2022-11-20T17:08:41;3.50;99.90
9177;DHT22;4623;54.310;10.112;2022-11-20T17:11:08;3.50;99.90
9177;DHT22;4623;54.310;10.112;2022-11-20T17:13:34;3.50;99.90
9177;DHT22;4623;54.310;10.112;2022-11-20T17:16:03;3.60;99.90
9177;DHT22;4623;54.310;10.112;2022-11-20T17:18:29;3.60;99.90
9177;DHT22;4623;54.310;10.112;2022-11-20T17:20:56;3.70;99.90
9177;DHT22;4623;54.310;10.112;2022-11-20T17:23:22;3.80;99.90
9177;DHT22;4623;54.310;10.112;2022-11-20T17:25:47;3.80;99.90
9177;DHT22;4623;54.310;10.112;2022-11-20T17:28:13;3.80;99.90
9177;DHT22;4623;54.310;10.112;2022-11-20T17:30:39;3.80;99.90
9177;DHT22;4623;54.310;10.112;2022-11-20T17:33:05;3.80;99.90
9177;DHT22;4623;54.310;10.112;2022-11-20T17:35:30;3.80;99.90
9177;DHT22;4623;54.310;10.112;2022-11-20T17:37:56;3.80;99.90
9177;DHT22;4623;54.310;10.112;2022-11-20T17:40:21;3.80;99.90
9177;DHT22;4623;54.310;10.112;2022-11-20T17:42:47;3.70;99.90
9177;DHT22;4623;54.310;10.112;2022-11-20T17:45:13;3.70;99.90
9177;DHT22;4623;54.310;10.112;2022-11-20T17:47:38;3.70;99.90
9177;DHT22;4623;54.310;10.112;2022-11-20T17:50:04;3.70;99.90
9177;DHT22;4623;54.310;10.112;2022-11-20T17:52:30;3.60;99.90
9177;DHT22;4623;54.310;10.112;2022-11-20T17:54:56;3.60;99.90
9177;DHT22;4623;54.310;10.112;2022-11-20T17:57:22;3.60;99.90